createdAt,value
2023-02-12T00:03:39.563Z,103179.13
2023-02-12T00:08:41.532Z,103178.38
2023-02-12T00:13:43.682Z,103175.75
2023-02-12T00:18:46.776Z,103181.88
2023-02-12T00:23:49.081Z,103188.06
2023-02-12T00:28:51.659Z,103182.72
2023-02-12T00:33:53.678Z,103177.44
2023-02-12T00:38:56.988Z,103181.81
2023-02-12T00:43:59.004Z,103190.69
2023-02-12T00:49:00.831Z,103184.47
2023-02-12T00:54:02.609Z,103185.38
2023-02-12T00:59:04.614Z,103177.41
2023-02-12T01:04:06.541Z,103175.66
2023-02-12T01:09:08.444Z,103176.53
2023-02-12T01:14:10.306Z,103176.56
2023-02-12T01:19:13.325Z,103177.44
2023-02-12T01:24:15.174Z,103174.78
2023-02-12T01:29:17.128Z,103172.09
2023-02-12T01:34:20.116Z,103168.59
2023-02-12T01:39:22.504Z,103174.75
2023-02-12T01:44:29.653Z,103163.28
2023-02-12T01:49:38.228Z,103165.03
2023-02-12T01:54:42.027Z,103156.22
2023-02-12T01:59:46.131Z,103161.53
2023-02-12T02:04:53.550Z,103158.00
2023-02-12T02:09:56.746Z,103157.13
2023-02-12T02:15:01.319Z,103157.13
2023-02-12T02:20:47.194Z,103155.34
2023-02-12T02:26:04.245Z,103155.34
2023-02-12T02:31:21.537Z,103153.56
2023-02-12T02:36:54.458Z,103153.59
2023-02-12T02:42:11.619Z,103142.97
2023-02-12T02:47:15.381Z,103149.19
2023-02-12T02:52:23.103Z,103149.16
2023-02-12T02:57:34.446Z,103138.56
2023-02-12T03:02:40.764Z,103144.75
2023-02-12T03:07:48.080Z,103146.50
2023-02-12T03:13:02.580Z,103142.97
2023-02-12T03:18:11.578Z,103145.63
2023-02-12T03:23:19.055Z,103158.88
2023-02-12T03:28:27.372Z,103145.66
2023-02-12T03:33:47.805Z,103145.63
2023-02-12T03:38:54.540Z,103152.69
2023-02-12T03:44:06.154Z,103145.63
2023-02-12T03:49:18.303Z,103142.97
2023-02-12T03:54:22.489Z,103138.56
2023-02-12T03:59:25.921Z,103142.97
2023-02-12T04:04:28.568Z,103147.41
2023-02-12T04:09:32.368Z,103153.56
2023-02-12T04:14:54.231Z,103147.41
2023-02-12T04:20:06.012Z,103155.34
2023-02-12T04:25:26.493Z,103154.47
2023-02-12T04:30:35.828Z,103158.88
2023-02-12T04:35:59.910Z,103167.72
2023-02-12T04:41:04.952Z,103154.47
2023-02-12T04:46:08.646Z,103170.34
2023-02-12T04:51:11.150Z,103180.06
2023-02-12T04:56:13.819Z,103166.84
2023-02-12T05:01:15.835Z,103166.84
2023-02-12T05:06:17.811Z,103165.09
2023-02-12T05:11:19.806Z,103171.25
2023-02-12T05:16:22.511Z,103163.31
2023-02-12T05:21:24.567Z,103163.31
2023-02-12T05:26:26.402Z,103174.75
2023-02-12T05:31:28.312Z,103170.38
2023-02-12T05:36:30.321Z,103170.34
2023-02-12T05:41:35.362Z,103182.72
2023-02-12T05:46:37.597Z,103180.06
2023-02-12T05:51:39.733Z,103187.16
2023-02-12T05:56:48.412Z,103187.16
2023-02-12T06:01:52.231Z,103184.50
2023-02-12T06:06:56.260Z,103188.03
2023-02-12T06:11:58.240Z,103188.91
2023-02-12T06:17:00.177Z,103184.50
2023-02-12T06:22:01.975Z,103192.44
2023-02-12T06:27:04.030Z,103198.63
2023-02-12T06:32:08.738Z,103203.06
2023-02-12T06:37:12.006Z,103199.50
2023-02-12T06:42:13.905Z,103196.88
2023-02-12T06:47:15.736Z,103203.06
2023-02-12T06:52:17.827Z,103210.13
2023-02-12T06:57:19.828Z,103210.09
2023-02-12T07:02:22.089Z,103215.41
2023-02-12T07:07:23.926Z,103226.00
2023-02-12T07:12:25.943Z,103231.34
2023-02-12T07:17:30.373Z,103220.72
2023-02-12T07:22:32.306Z,103229.56
2023-02-12T07:27:37.072Z,103224.25
2023-02-12T07:32:39.169Z,103230.44
2023-02-12T07:37:41.237Z,103233.97
2023-02-12T07:42:43.045Z,103238.38
2023-02-12T07:47:45.174Z,103243.69
2023-02-12T07:52:50.400Z,103241.06
2023-02-12T07:57:52.441Z,103241.94
2023-02-12T08:02:54.577Z,103238.38
2023-02-12T08:07:56.515Z,103246.34
2023-02-12T08:12:58.438Z,103250.75
2023-02-12T08:18:01.957Z,103248.13
2023-02-12T08:23:03.816Z,103258.72
2023-02-12T08:28:06.422Z,103250.75
2023-02-12T08:33:08.375Z,103258.69
2023-02-12T08:38:10.492Z,103263.09
2023-02-12T08:43:12.545Z,103257.81
2023-02-12T08:48:14.546Z,103267.53
2023-02-12T08:53:16.478Z,103267.53
2023-02-12T08:58:18.742Z,103265.78
2023-02-12T09:03:20.694Z,103280.78
2023-02-12T09:08:22.940Z,103278.13
2023-02-12T09:13:24.979Z,103270.19
2023-02-12T09:18:27.014Z,103267.56
2023-02-12T09:23:28.964Z,103271.06
2023-02-12T09:28:31.348Z,103264.88
2023-02-12T09:33:33.687Z,103266.59
2023-02-12T09:38:35.827Z,103263.94
2023-02-12T09:43:47.945Z,103265.72
2023-02-12T09:49:11.736Z,103264.88
2023-02-12T09:54:16.222Z,103271.94
2023-02-12T09:59:35.933Z,103286.09
2023-02-12T10:04:43.969Z,103284.31
2023-02-12T10:10:10.777Z,103286.97
2023-02-12T10:15:33.141Z,103286.94
2023-02-12T10:20:58.352Z,103289.63
2023-02-12T10:26:10.114Z,103292.28
2023-02-12T10:31:32.441Z,103290.50
2023-02-12T10:36:44.179Z,103285.19
2023-02-12T10:42:10.969Z,103289.59
2023-02-12T10:47:24.283Z,103288.72
2023-02-12T10:52:53.566Z,103291.41
2023-02-12T10:57:56.331Z,103286.09
2023-02-12T11:03:19.556Z,103286.97
2023-02-12T11:08:34.196Z,103279.88
2023-02-12T11:13:36.515Z,103277.25
2023-02-12T11:18:39.079Z,103269.31
2023-02-12T11:23:44.221Z,103266.63
2023-02-12T11:28:55.774Z,103253.41
2023-02-12T11:34:13.183Z,103254.28
2023-02-12T11:39:36.703Z,103247.22
2023-02-12T11:44:41.870Z,103241.91
2023-02-12T11:49:51.414Z,103234.84
2023-02-12T11:54:56.939Z,103230.41
2023-02-12T12:00:01.638Z,103231.28
2023-02-12T12:05:21.428Z,103222.47
2023-02-12T12:10:23.184Z,103222.47
2023-02-12T12:15:48.522Z,103214.53
2023-02-12T12:20:56.297Z,103207.44
2023-02-12T12:26:07.134Z,103201.25
2023-02-12T12:31:39.479Z,103193.31
2023-02-12T12:37:00.408Z,103198.59
2023-02-12T12:42:11.384Z,103190.66
2023-02-12T12:47:40.022Z,103192.44
2023-02-12T12:53:19.285Z,103195.06
2023-02-12T12:58:48.847Z,103180.94
2023-02-12T13:03:59.858Z,103180.94
2023-02-12T13:09:19.761Z,103173.88
2023-02-12T13:14:40.317Z,103167.69
2023-02-12T13:19:55.962Z,103147.38
2023-02-12T13:25:07.152Z,103143.84
2023-02-12T13:30:15.757Z,103135.00
2023-02-12T13:35:23.682Z,103135.88
2023-02-12T13:40:28.498Z,103147.34
2023-02-12T13:45:49.529Z,103138.53
2023-02-12T13:51:37.790Z,103137.66
2023-02-12T13:56:50.001Z,103132.38
2023-02-12T14:01:51.977Z,103133.25
2023-02-12T14:07:12.969Z,103128.81
2023-02-12T14:12:30.653Z,103131.47
2023-02-12T14:17:32.590Z,103126.16
2023-02-12T14:22:34.382Z,103126.16
2023-02-12T14:28:11.768Z,103129.72
2023-02-12T14:33:24.324Z,103127.06
2023-02-12T14:38:32.215Z,103127.91
2023-02-12T14:43:57.287Z,103127.91
2023-02-12T14:49:05.749Z,103118.25
2023-02-12T14:54:19.301Z,103127.91
2023-02-12T14:59:24.773Z,103125.25
2023-02-12T15:04:35.499Z,103126.16
2023-02-12T15:09:44.445Z,103120.88
2023-02-12T15:14:51.640Z,103118.22
2023-02-12T15:20:00.222Z,103110.25
2023-02-12T15:25:26.645Z,103111.16
2023-02-12T15:30:32.369Z,103106.72
2023-02-12T15:35:40.032Z,103104.97
2023-02-12T15:40:54.561Z,103111.13
2023-02-12T15:45:56.747Z,103108.47
2023-02-12T15:51:17.342Z,103104.06
2023-02-12T15:56:23.363Z,103098.75
2023-02-12T16:01:30.639Z,103100.53
2023-02-12T16:06:34.927Z,103097.00
2023-02-12T16:11:37.607Z,103095.25
2023-02-12T16:16:51.550Z,103098.78
2023-02-12T16:21:53.356Z,103090.72
2023-02-12T16:26:56.230Z,103093.44
2023-02-12T16:32:03.188Z,103096.09
2023-02-12T16:37:45.426Z,103089.06
2023-02-12T16:42:47.359Z,103094.31
2023-02-12T16:47:50.732Z,103081.06
2023-02-12T16:53:07.764Z,103090.81
2023-02-12T16:58:09.694Z,103080.19
2023-02-12T17:03:16.681Z,103080.19
2023-02-12T17:08:21.900Z,103076.66
2023-02-12T17:13:23.908Z,103081.94
2023-02-12T17:18:26.003Z,103081.09
2023-02-12T17:23:28.772Z,103083.72
2023-02-12T17:28:32.242Z,103086.38
2023-02-12T17:33:34.105Z,103089.91
2023-02-12T17:38:36.157Z,103086.34
2023-02-12T17:43:38.482Z,103095.22
2023-02-12T17:48:40.916Z,103092.56
2023-02-12T17:53:43.744Z,103093.44
2023-02-12T17:58:46.760Z,103087.25
2023-02-12T18:03:52.351Z,103089.91
2023-02-12T18:08:57.394Z,103094.31
2023-02-12T18:14:00.338Z,103091.66
2023-02-12T18:19:04.990Z,103088.13
2023-02-12T18:24:07.349Z,103087.22
2023-02-12T18:29:09.244Z,103090.81
2023-02-12T18:34:11.349Z,103089.00
2023-02-12T18:39:13.241Z,103091.66
2023-02-12T18:44:15.615Z,103080.19
2023-02-12T18:49:17.577Z,103076.66
2023-02-12T18:54:19.835Z,103079.28
2023-02-12T18:59:21.898Z,103066.91
2023-02-12T19:04:24.310Z,103067.78
2023-02-12T19:09:27.174Z,103071.34
2023-02-12T19:14:29.337Z,103073.09
2023-02-12T19:19:31.345Z,103071.31
2023-02-12T19:24:45.880Z,103073.94
2023-02-12T19:29:48.390Z,103069.53
2023-02-12T19:34:50.454Z,103076.63
2023-02-12T19:39:53.274Z,103078.41
2023-02-12T19:44:55.323Z,103066.03
2023-02-12T19:49:57.411Z,103070.44
2023-02-12T19:54:59.262Z,103060.72
2023-02-12T20:00:01.131Z,103051.91
2023-02-12T20:05:03.308Z,103058.25
2023-02-12T20:10:05.705Z,103060.94
2023-02-12T20:15:07.925Z,103060.91
2023-02-12T20:20:10.499Z,103060.03
2023-02-12T20:25:12.292Z,103054.69
2023-02-12T20:30:14.911Z,103055.56
2023-02-12T20:35:16.973Z,103052.13
2023-02-12T20:40:18.820Z,103061.78
2023-02-12T20:45:20.580Z,103066.16
2023-02-12T20:50:22.601Z,103058.25
2023-02-12T20:55:24.911Z,103068.88
2023-02-12T21:00:26.832Z,103056.50
2023-02-12T21:05:29.188Z,103059.16
2023-02-12T21:10:32.862Z,103054.75
2023-02-12T21:15:34.688Z,103060.91
2023-02-12T21:20:36.657Z,103058.28
2023-02-12T21:25:38.803Z,103062.66
2023-02-12T21:30:40.901Z,103057.44
2023-02-12T21:35:42.840Z,103053.78
2023-02-12T21:40:44.806Z,103053.72
2023-02-12T21:45:51.255Z,103059.91
2023-02-12T21:50:53.232Z,103047.31
2023-02-12T21:55:55.967Z,103048.59
2023-02-12T22:01:07.280Z,103049.50
2023-02-12T22:06:09.385Z,103050.34
2023-02-12T22:11:13.454Z,103050.16
2023-02-12T22:16:23.328Z,103042.94
2023-02-12T22:21:28.325Z,103034.94
2023-02-12T22:26:31.650Z,103043.81
2023-02-12T22:31:36.111Z,103038.53
2023-02-12T22:36:39.404Z,103042.06
2023-02-12T22:41:44.671Z,103045.59
2023-02-12T22:46:46.551Z,103047.38
2023-02-12T22:51:48.512Z,103043.84
2023-02-12T22:56:51.888Z,103042.97
2023-02-12T23:01:53.806Z,103037.66
2023-02-12T23:06:55.637Z,103043.00
2023-02-12T23:11:57.594Z,103044.78
2023-02-12T23:16:59.602Z,103039.47
2023-02-12T23:22:01.953Z,103032.41
2023-02-12T23:27:03.783Z,103037.69
2023-02-12T23:32:05.887Z,103031.53
2023-02-12T23:37:07.912Z,103027.97
2023-02-12T23:42:10.155Z,103027.97
2023-02-12T23:47:12.026Z,103023.56
2023-02-12T23:52:13.927Z,103019.13
2023-02-12T23:57:15.827Z,103014.75
